Beti Zeruko Izarra — EA5281 — position and weather

sailwx.info

Track history (hours):
 
Tides and Currents Weather Stations Pressure Air Temp Water Temp Dewpoint Dewpoint Depression Visibility Wind Speed Wind Dir Waves Ship Positions

Beti Zeruko Izarra

Last reported at 2018-Apr-19 13:30 UTC. Time now 2018-Apr-19 13:41 UTC.
Position N 43°28' W 002°38'.

Length 16 m; draft 1.7 m.

Type: Fishing. MMSI: 224025280.

Date/timePositionNaut miles runAvg speedWind from/ knotsBaromVisibWave heightAir tempDewpointWater temp
2018-Apr-19 13:30N 43°28' W 002°38'0 0.5
2018-Apr-19 13:01N 43°28' W 002°39'0 0.6
2018-Apr-19 12:31N 43°28' W 002°39'0 0.9
2018-Apr-19 12:01N 43°28' W 002°40'2 3.8
2018-Apr-19 11:30N 43°29' W 002°42'1 0.5
2018-Apr-19 09:02N 43°28' W 002°44'0 3.8
2018-Apr-19 08:58N 43°28' W 002°43'2 3.7
2018-Apr-19 08:31N 43°28' W 002°41'1 3.0
2018-Apr-19 08:00N 43°27' W 002°39'1 1.1
2018-Apr-19 07:30N 43°28' W 002°40'1 1.1
2018-Apr-19 07:00N 43°28' W 002°41'0 0.9
2018-Apr-19 06:30N 43°28' W 002°41'2 3.3
2018-Apr-19 06:00N 43°26' W 002°42'2 0.1
2018-Apr-18 16:38N 43°25' W 002°43'0 0.0
2018-Apr-18 16:15N 43°25' W 002°43'0 0.7
2018-Apr-18 15:50N 43°25' W 002°43'1 4.0
2018-Apr-18 15:30N 43°26' W 002°43'2 0.9
2018-Apr-18 13:32N 43°28' W 002°44'1 9.1
2018-Apr-18 13:27N 43°28' W 002°43'1 2.2
2018-Apr-18 13:00N 43°28' W 002°42'0 0.6
2018-Apr-18 12:30N 43°28' W 002°42'0 0.7
2018-Apr-18 12:00N 43°28' W 002°42'0 0.7
2018-Apr-18 11:30N 43°28' W 002°43'0 0.6
2018-Apr-18 10:58N 43°28' W 002°43'0 0.5
2018-Apr-18 10:05N 43°28' W 002°44'0 0.6
2018-Apr-18 10:00N 43°28' W 002°44'2 4.0
2018-Apr-18 09:30N 43°29' W 002°41'0 0.9
2018-Apr-18 09:00N 43°29' W 002°41'0 0.6
2018-Apr-18 08:30N 43°29' W 002°41'0 0.6
2018-Apr-18 08:00N 43°29' W 002°41'0 0.3
2018-Apr-18 07:29N 43°29' W 002°42'2 3.2
2018-Apr-18 06:59N 43°27' W 002°42'2 4.3
2018-Apr-18 06:30N 43°25' W 002°42'0 0.0
2018-Apr-17 18:34N 43°26' W 002°42'1 8.2
2018-Apr-17 18:30N 43°26' W 002°42'3 5.9
2018-Apr-17 18:00N 43°29' W 002°41'0 0.3
2018-Apr-17 17:30N 43°29' W 002°42'0 0.6
2018-Apr-17 17:00N 43°29' W 002°42'0 0.6
2018-Apr-17 16:30N 43°29' W 002°42'0 0.8
2018-Apr-17 15:59N 43°29' W 002°43'1 1.9
2018-Apr-17 15:30N 43°29' W 002°44'0 0.4
2018-Apr-17 14:59N 43°29' W 002°44'0 0.4
2018-Apr-17 14:20N 43°29' W 002°44'0 0.3
2018-Apr-17 13:54N 43°29' W 002°43'3 0.3
2018-Apr-17 05:20N 43°27' W 002°44'1 0.1
2018-Apr-16 16:23N 43°26' W 002°43'3 3.3
2018-Apr-16 15:35N 43°28' W 002°43'1 8.7
2018-Apr-16 15:29N 43°28' W 002°42'3 6.7
2018-Apr-16 15:00N 43°28' W 002°38'1 2.3
2018-Apr-16 14:30N 43°27' W 002°39'2 4.8
2018-Apr-16 14:00N 43°28' W 002°42'2 3.5
2018-Apr-16 13:30N 43°26' W 002°43'1 2.4
2018-Apr-16 13:00N 43°25' W 002°43'0 0.0
2018-Apr-16 12:30N 43°25' W 002°43'0 0.0
2018-Apr-16 12:00N 43°25' W 002°43'0 0.0
2018-Apr-16 11:30N 43°25' W 002°43'0 0.0
2018-Apr-16 10:58N 43°25' W 002°43'0 0.0
2018-Apr-15 18:02N 43°25' W 002°43'0 8.6
2018-Apr-15 18:00N 43°26' W 002°42'3 6.9
2018-Apr-15 17:30N 43°29' W 002°41'3 1.3
2018-Apr-15 15:16N 43°27' W 002°44'  
2018-Apr-12 14:08N 43°25' W 002°43'0 0.1
2018-Apr-12 14:00N 43°25' W 002°43'1 0.2
2018-Apr-12 10:29N 43°26' W 002°42'1 2.1
2018-Apr-12 10:00N 43°27' W 002°43'1 0.6
2018-Apr-12 09:03N 43°27' W 002°43'0 0.3
2018-Apr-12 08:44N 43°27' W 002°43'0 0.7
2018-Apr-12 08:23N 43°27' W 002°42'0 0.9
2018-Apr-12 08:00N 43°27' W 002°43'1 1.1
2018-Apr-12 07:27N 43°27' W 002°44'0 0.7
2018-Apr-12 06:59N 43°28' W 002°44'0 0.4
2018-Apr-12 06:24N 43°28' W 002°43'1 1.7
2018-Apr-12 05:44N 43°27' W 002°44'2 7.5
2018-Apr-12 05:29N 43°25' W 002°43'0 0.0
2018-Apr-10 10:59N 43°25' W 002°43'2 0.3
2018-Apr-10 05:25N 43°27' W 002°42'2 0.1
2018-Apr-09 15:40N 43°25' W 002°43'1 3.8
2018-Apr-09 15:30N 43°26' W 002°43'2 1.0
2018-Apr-09 13:56N 43°27' W 002°44'2 4.9
2018-Apr-09 13:30N 43°26' W 002°41'  
Track history (hours):
 
Tides and Currents Weather Stations Pressure Air Temp Water Temp Dewpoint Dewpoint Depression Visibility Wind Speed Wind Dir Waves Ship Positions

Beti Zeruko Izarra

Last reported at 2018-Apr-19 13:30 UTC. Time now 2018-Apr-19 13:41 UTC.
Position N 43°28' W 002°38'.

Length 16 m; draft 1.7 m.

Type: Fishing. MMSI: 224025280.

Date/timePositionNaut miles runAvg speedWind from/ knotsBaromVisibWave heightAir tempDewpointWater temp
2018-Apr-19 13:30N 43°28' W 002°38'0 0.5
2018-Apr-19 13:01N 43°28' W 002°39'0 0.6
2018-Apr-19 12:31N 43°28' W 002°39'0 0.9
2018-Apr-19 12:01N 43°28' W 002°40'2 3.8
2018-Apr-19 11:30N 43°29' W 002°42'1 0.5
2018-Apr-19 09:02N 43°28' W 002°44'0 3.8
2018-Apr-19 08:58N 43°28' W 002°43'2 3.7
2018-Apr-19 08:31N 43°28' W 002°41'1 3.0
2018-Apr-19 08:00N 43°27' W 002°39'1 1.1
2018-Apr-19 07:30N 43°28' W 002°40'1 1.1
2018-Apr-19 07:00N 43°28' W 002°41'0 0.9
2018-Apr-19 06:30N 43°28' W 002°41'2 3.3
2018-Apr-19 06:00N 43°26' W 002°42'2 0.1
2018-Apr-18 16:38N 43°25' W 002°43'0 0.0
2018-Apr-18 16:15N 43°25' W 002°43'0 0.7
2018-Apr-18 15:50N 43°25' W 002°43'1 4.0
2018-Apr-18 15:30N 43°26' W 002°43'2 0.9
2018-Apr-18 13:32N 43°28' W 002°44'1 9.1
2018-Apr-18 13:27N 43°28' W 002°43'1 2.2
2018-Apr-18 13:00N 43°28' W 002°42'0 0.6
2018-Apr-18 12:30N 43°28' W 002°42'0 0.7
2018-Apr-18 12:00N 43°28' W 002°42'0 0.7
2018-Apr-18 11:30N 43°28' W 002°43'0 0.6
2018-Apr-18 10:58N 43°28' W 002°43'0 0.5
2018-Apr-18 10:05N 43°28' W 002°44'0 0.6
2018-Apr-18 10:00N 43°28' W 002°44'2 4.0
2018-Apr-18 09:30N 43°29' W 002°41'0 0.9
2018-Apr-18 09:00N 43°29' W 002°41'0 0.6
2018-Apr-18 08:30N 43°29' W 002°41'0 0.6
2018-Apr-18 08:00N 43°29' W 002°41'0 0.3
2018-Apr-18 07:29N 43°29' W 002°42'2 3.2
2018-Apr-18 06:59N 43°27' W 002°42'2 4.3
2018-Apr-18 06:30N 43°25' W 002°42'0 0.0
2018-Apr-17 18:34N 43°26' W 002°42'1 8.2
2018-Apr-17 18:30N 43°26' W 002°42'3 5.9
2018-Apr-17 18:00N 43°29' W 002°41'0 0.3
2018-Apr-17 17:30N 43°29' W 002°42'0 0.6
2018-Apr-17 17:00N 43°29' W 002°42'0 0.6
2018-Apr-17 16:30N 43°29' W 002°42'0 0.8
2018-Apr-17 15:59N 43°29' W 002°43'1 1.9
2018-Apr-17 15:30N 43°29' W 002°44'0 0.4
2018-Apr-17 14:59N 43°29' W 002°44'0 0.4
2018-Apr-17 14:20N 43°29' W 002°44'0 0.3
2018-Apr-17 13:54N 43°29' W 002°43'3 0.3
2018-Apr-17 05:20N 43°27' W 002°44'1 0.1
2018-Apr-16 16:23N 43°26' W 002°43'3 3.3
2018-Apr-16 15:35N 43°28' W 002°43'1 8.7
2018-Apr-16 15:29N 43°28' W 002°42'3 6.7
2018-Apr-16 15:00N 43°28' W 002°38'1 2.3
2018-Apr-16 14:30N 43°27' W 002°39'2 4.8
2018-Apr-16 14:00N 43°28' W 002°42'2 3.5
2018-Apr-16 13:30N 43°26' W 002°43'1 2.4
2018-Apr-16 13:00N 43°25' W 002°43'0 0.0
2018-Apr-16 12:30N 43°25' W 002°43'0 0.0
2018-Apr-16 12:00N 43°25' W 002°43'0 0.0
2018-Apr-16 11:30N 43°25' W 002°43'0 0.0
2018-Apr-16 10:58N 43°25' W 002°43'0 0.0
2018-Apr-15 18:02N 43°25' W 002°43'0 8.6
2018-Apr-15 18:00N 43°26' W 002°42'3 6.9
2018-Apr-15 17:30N 43°29' W 002°41'3 1.3
2018-Apr-15 15:16N 43°27' W 002°44'  
2018-Apr-12 14:08N 43°25' W 002°43'0 0.1
2018-Apr-12 14:00N 43°25' W 002°43'1 0.2
2018-Apr-12 10:29N 43°26' W 002°42'1 2.1
2018-Apr-12 10:00N 43°27' W 002°43'1 0.6
2018-Apr-12 09:03N 43°27' W 002°43'0 0.3
2018-Apr-12 08:44N 43°27' W 002°43'0 0.7
2018-Apr-12 08:23N 43°27' W 002°42'0 0.9
2018-Apr-12 08:00N 43°27' W 002°43'1 1.1
2018-Apr-12 07:27N 43°27' W 002°44'0 0.7
2018-Apr-12 06:59N 43°28' W 002°44'0 0.4
2018-Apr-12 06:24N 43°28' W 002°43'1 1.7
2018-Apr-12 05:44N 43°27' W 002°44'2 7.5
2018-Apr-12 05:29N 43°25' W 002°43'0 0.0
2018-Apr-10 10:59N 43°25' W 002°43'2 0.3
2018-Apr-10 05:25N 43°27' W 002°42'2 0.1
2018-Apr-09 15:40N 43°25' W 002°43'1 3.8
2018-Apr-09 15:30N 43°26' W 002°43'2 1.0
2018-Apr-09 13:56N 43°27' W 002°44'2 4.9
2018-Apr-09 13:30N 43°26' W 002°41'  

Dump ship's entire track history